Time;durP1;ratioP1;P1;durP2;ratioP2;P2;SDS_P1;SDS_P2;PMS_P1;PMS_P2;Temp;Humidity;BMP_temperature;BMP_pressure;BME280_temperature;BME280_humidity;BME280_pressure;Samples;Min_cycle;Max_cycle;Signal;HPM_P1;HPM_P2
2022/10/10 00:03:41;;;;;;;3.22;2.60;;;;;11.20;96521.00;;;;8427692;28;20219;-69
2022/10/10 00:07:44;;;;;;;4.03;2.50;;;;;11.20;96518.00;;;;8415358;28;20219;-70
2022/10/10 00:11:47;;;;;;;7.88;2.65;;;;;11.20;96520.00;;;;8423142;28;20648;-70
2022/10/10 00:15:51;;;;;;;3.85;2.80;;;;;11.20;96519.00;;;;8427026;28;20575;-70
2022/10/10 00:19:54;;;;;;;2.60;2.40;;;;;11.10;96524.00;;;;8427704;28;20505;-70
2022/10/10 00:24:31;;;;;;;4.82;2.70;;;;;11.00;96520.00;;;;8426378;28;20215;-70
2022/10/10 00:28:37;;;;;;;5.38;2.90;;;;;10.90;96519.00;;;;8426859;28;20212;-70
2022/10/10 00:32:42;;;;;;;4.80;2.78;;;;;10.90;96522.00;;;;8426729;28;20277;-71
2022/10/10 00:36:45;;;;;;;4.22;3.08;;;;;10.90;96515.00;;;;8426558;28;20219;-70
2022/10/10 00:40:50;;;;;;;6.47;2.75;;;;;10.80;96523.00;;;;8427093;28;20220;-70
2022/10/10 00:45:22;;;;;;;10.20;3.40;;;;;10.70;96508.00;;;;8426574;28;20292;-69
2022/10/10 00:49:30;;;;;;;4.28;2.85;;;;;10.70;96511.00;;;;8422968;28;20219;-71
2022/10/10 00:53:38;;;;;;;4.65;2.67;;;;;10.70;96516.00;;;;8430074;28;20602;-70
2022/10/10 00:58:09;;;;;;;4.25;2.88;;;;;10.70;96510.00;;;;8432852;28;20219;-70
2022/10/10 01:02:12;;;;;;;5.65;2.70;;;;;10.60;96511.00;;;;8432070;28;20306;-70
2022/10/10 01:06:17;;;;;;;6.70;2.60;;;;;10.60;96508.00;;;;8430682;28;20223;-69
2022/10/10 01:11:08;;;;;;;4.68;3.00;;;;;10.60;96500.00;;;;8428402;28;20575;-70
2022/10/10 01:15:20;;;;;;;5.22;3.13;;;;;10.60;96501.00;;;;8348229;28;20216;-69
2022/10/10 01:19:58;;;;;;;3.97;2.80;;;;;10.50;96503.00;;;;8432491;28;20675;-70
2022/10/10 01:24:31;;;;;;;3.78;2.97;;;;;10.60;96494.00;;;;8430062;28;20215;-70
2022/10/10 01:28:41;;;;;;;5.90;2.92;;;;;10.70;96483.00;;;;8429568;28;20219;-70
2022/10/10 01:33:13;;;;;;;4.43;2.80;;;;;10.80;96477.00;;;;8433140;28;20224;-70
2022/10/10 01:37:19;;;;;;;6.03;2.67;;;;;10.80;96479.00;;;;8431108;28;20227;-70
2022/10/10 01:41:26;;;;;;;4.47;2.88;;;;;10.90;96480.00;;;;8431296;28;20227;-70
2022/10/10 01:45:31;;;;;;;5.90;2.70;;;;;11.00;96473.00;;;;8432089;28;20219;-70
2022/10/10 01:49:34;;;;;;;4.85;3.10;;;;;11.00;96471.00;;;;8431520;28;20571;-71
2022/10/10 01:53:43;;;;;;;5.03;3.00;;;;;11.00;96466.00;;;;8431022;28;20225;-70
2022/10/10 01:57:59;;;;;;;4.22;3.00;;;;;11.00;96464.00;;;;8431307;28;20222;-71
2022/10/10 02:02:24;;;;;;;8.48;3.22;;;;;11.00;96464.00;;;;8430249;28;20220;-71
2022/10/10 02:06:31;;;;;;;8.60;2.95;;;;;10.90;96466.00;;;;8426653;28;20556;-70
2022/10/10 02:10:40;;;;;;;7.30;2.90;;;;;10.90;96449.00;;;;8430654;28;20226;-70
2022/10/10 02:14:46;;;;;;;4.50;2.92;;;;;10.80;96453.00;;;;8431071;28;20222;-70
2022/10/10 02:18:52;;;;;;;8.48;2.88;;;;;10.80;96446.00;;;;8430844;28;20596;-70
2022/10/10 02:23:25;;;;;;;4.20;3.20;;;;;10.80;96450.00;;;;8426022;28;20211;-70
2022/10/10 02:27:35;;;;;;;4.07;2.85;;;;;10.80;96439.00;;;;8429863;28;20208;-70
2022/10/10 02:31:42;;;;;;;3.47;2.88;;;;;10.80;96442.00;;;;8431097;28;20223;-71
2022/10/10 02:35:49;;;;;;;6.38;3.28;;;;;10.80;96444.00;;;;8429636;28;20230;-70
2022/10/10 02:39:58;;;;;;;13.45;3.58;;;;;10.70;96446.00;;;;8429967;28;20641;-70
2022/10/10 02:44:03;;;;;;;6.45;3.42;;;;;10.70;96445.00;;;;8429462;28;20251;-70
2022/10/10 02:48:23;;;;;;;6.20;2.88;;;;;10.60;96452.00;;;;8429576;28;20232;-70
2022/10/10 02:52:27;;;;;;;6.15;2.80;;;;;10.60;96452.00;;;;8429331;28;20219;-70
2022/10/10 02:56:31;;;;;;;5.10;3.10;;;;;10.50;96456.00;;;;8429561;28;20222;-71
2022/10/10 03:01:04;;;;;;;6.90;3.05;;;;;10.40;96455.00;;;;8427725;28;20223;-71
2022/10/10 03:05:08;;;;;;;6.07;3.10;;;;;10.30;96446.00;;;;8426096;28;20232;-71
2022/10/10 03:09:13;;;;;;;5.35;3.03;;;;;10.20;96445.00;;;;8428952;28;20223;-70
2022/10/10 03:13:17;;;;;;;9.65;4.63;;;;;10.10;96446.00;;;;8428947;28;20676;-70
2022/10/10 03:17:20;;;;;;;6.40;3.33;;;;;10.10;96442.00;;;;8428334;28;20219;-70
2022/10/10 03:21:56;;;;;;;4.47;3.10;;;;;9.90;96438.00;;;;8428525;28;20227;-70
2022/10/10 03:26:01;;;;;;;5.25;3.60;;;;;9.80;96447.00;;;;8395073;28;20220;-70
2022/10/10 03:30:05;;;;;;;5.30;3.53;;;;;9.80;96447.00;;;;8394554;28;20250;-70
2022/10/10 03:34:25;;;;;;;5.75;3.08;;;;;9.70;96447.00;;;;8394862;28;20223;-71
2022/10/10 03:39:02;;;;;;;8.40;3.60;;;;;9.60;96442.00;;;;8422815;28;20647;-70
2022/10/10 03:43:41;;;;;;;6.10;3.60;;;;;9.50;96434.00;;;;8428144;28;20658;-71
2022/10/10 03:48:14;;;;;;;9.00;4.77;;;;;9.50;96438.00;;;;8417974;28;20577;-70
2022/10/10 03:52:51;;;;;;;5.53;3.50;;;;;9.40;96430.00;;;;8423856;28;20222;-71
2022/10/10 03:57:28;;;;;;;6.27;3.70;;;;;9.40;96438.00;;;;8427542;28;20601;-71
2022/10/10 04:01:33;;;;;;;4.23;3.40;;;;;9.40;96439.00;;;;8418326;28;20230;-70
2022/10/10 04:05:38;;;;;;;7.03;3.40;;;;;9.40;96438.00;;;;8427280;28;20680;-70
2022/10/10 04:10:11;;;;;;;6.00;3.43;;;;;9.30;96440.00;;;;8426839;28;20230;-70
2022/10/10 04:14:48;;;;;;;8.30;3.60;;;;;9.20;96433.00;;;;8424509;28;20226;-70
2022/10/10 04:19:26;;;;;;;8.20;3.47;;;;;9.10;96427.00;;;;8426754;28;20581;-69
2022/10/10 04:24:00;;;;;;;5.97;3.55;;;;;8.90;96416.00;;;;8422570;28;20698;-69
2022/10/10 04:28:37;;;;;;;10.63;4.50;;;;;8.80;96431.00;;;;8428852;28;20211;-69
2022/10/10 04:33:14;;;;;;;6.47;4.20;;;;;8.70;96434.00;;;;8431997;28;20207;-69
2022/10/10 04:37:52;;;;;;;8.57;4.13;;;;;8.70;96432.00;;;;8432033;28;20219;-68
2022/10/10 04:42:26;;;;;;;14.67;4.63;;;;;8.60;96430.00;;;;8432785;28;20222;-68
2022/10/10 04:47:03;;;;;;;6.73;4.10;;;;;8.60;96421.00;;;;8429523;28;20219;-68
2022/10/10 04:51:39;;;;;;;14.83;4.50;;;;;8.50;96418.00;;;;8429572;28;20223;-69
2022/10/10 04:55:59;;;;;;;9.03;4.40;;;;;8.50;96414.00;;;;8430958;28;20649;-69
2022/10/10 05:00:33;;;;;;;9.73;4.60;;;;;8.50;96414.00;;;;8400450;28;20224;-69
2022/10/10 05:05:10;;;;;;;8.00;4.67;;;;;8.50;96424.00;;;;8398927;28;20549;-69
2022/10/10 05:09:47;;;;;;;7.93;4.47;;;;;8.50;96421.00;;;;8399677;28;20227;-69
2022/10/10 05:14:25;;;;;;;6.13;4.23;;;;;8.50;96432.00;;;;8427141;28;20541;-68
2022/10/10 05:24:00;;;;;;;12.53;5.73;;;;;8.50;96443.00;;;;8431912;28;20215;-69
2022/10/10 05:28:36;;;;;;;20.17;7.13;;;;;8.50;96437.00;;;;8416435;28;20230;-69
2022/10/10 05:33:15;;;;;;;12.77;5.23;;;;;8.50;96444.00;;;;8420299;28;20298;-69
2022/10/10 05:37:49;;;;;;;9.00;5.27;;;;;8.60;96449.00;;;;8429092;28;20656;-69
2022/10/10 05:42:25;;;;;;;15.47;5.43;;;;;8.70;96448.00;;;;8429770;28;20226;-69
2022/10/10 05:47:03;;;;;;;24.60;9.37;;;;;8.80;96446.00;;;;8431493;28;20239;-69
2022/10/10 05:51:39;;;;;;;15.73;7.37;;;;;8.90;96451.00;;;;8427881;28;20227;-70
2022/10/10 05:56:17;;;;;;;18.37;6.60;;;;;9.10;96460.00;;;;8428473;28;20633;-68
2022/10/10 06:00:51;;;;;;;15.30;6.10;;;;;9.30;96457.00;;;;8430512;28;20246;-69
2022/10/10 06:05:28;;;;;;;8.53;5.17;;;;;9.50;96462.00;;;;8429787;28;20215;-69
2022/10/10 06:10:05;;;;;;;13.07;5.37;;;;;9.70;96456.00;;;;8427233;28;20302;-69
2022/10/10 06:14:43;;;;;;;4.18;3.78;;;;;10.00;96460.00;;;;8419393;28;20640;-69
2022/10/10 06:19:20;;;;;;;6.07;4.20;;;;;10.10;96471.00;;;;8396859;28;20216;-69
2022/10/10 06:23:57;;;;;;;4.80;3.90;;;;;10.30;96460.00;;;;8424992;28;20565;-69
2022/10/10 06:28:34;;;;;;;7.73;4.00;;;;;10.50;96472.00;;;;8430659;28;20305;-69
2022/10/10 06:33:13;;;;;;;6.53;4.30;;;;;10.70;96473.00;;;;8426353;28;20211;-69
2022/10/10 06:37:47;;;;;;;6.97;4.17;;;;;11.00;96470.00;;;;8429167;28;20223;-69
2022/10/10 06:42:24;;;;;;;6.17;3.80;;;;;11.20;96469.00;;;;8430895;28;20222;-69
2022/10/10 06:46:27;;;;;;;7.53;4.50;;;;;11.50;96483.00;;;;8428653;28;20218;-69
2022/10/10 06:51:06;;;;;;;6.50;3.90;;;;;11.90;96488.00;;;;8429502;28;20219;-69
2022/10/10 06:55:45;;;;;;;5.50;3.50;;;;;12.10;96492.00;;;;8425624;28;20228;-69
2022/10/10 07:00:16;;;;;;;8.25;4.10;;;;;12.50;96503.00;;;;8427598;28;20223;-69
2022/10/10 07:04:53;;;;;;;10.05;4.15;;;;;12.70;96498.00;;;;8426769;28;20636;-70
2022/10/10 07:09:32;;;;;;;8.82;3.92;;;;;12.90;96505.00;;;;8427994;28;20220;-70
2022/10/10 07:14:06;;;;;;;5.25;3.80;;;;;13.30;96521.00;;;;8423472;28;20259;-69
2022/10/10 07:23:42;;;;;;;5.53;3.95;;;;;14.30;96514.00;;;;8423849;28;20689;-69
2022/10/10 07:28:20;;;;;;;6.18;3.58;;;;;14.60;96509.00;;;;8425771;28;20221;-69
2022/10/10 07:32:57;;;;;;;7.68;4.38;;;;;15.00;96509.00;;;;8428512;28;20215;-70
2022/10/10 07:37:34;;;;;;;12.63;4.82;;;;;15.30;96526.00;;;;8427391;28;20226;-69
2022/10/10 07:42:11;;;;;;;9.52;4.70;;;;;15.60;96523.00;;;;8422993;28;20233;-69
2022/10/10 07:46:49;;;;;;;5.25;4.03;;;;;15.70;96531.00;;;;8424639;28;20215;-69
2022/10/10 07:51:23;;;;;;;8.57;3.95;;;;;15.80;96526.00;;;;8393842;28;20219;-69
2022/10/10 07:55:26;;;;;;;8.75;4.10;;;;;15.90;96526.00;;;;8427084;28;20257;-70
2022/10/10 08:00:03;;;;;;;5.03;3.75;;;;;15.80;96526.00;;;;8426819;28;20215;-69
2022/10/10 08:04:41;;;;;;;6.68;4.28;;;;;15.60;96526.00;;;;8426159;28;20333;-69
2022/10/10 08:09:15;;;;;;;6.18;3.58;;;;;15.70;96523.00;;;;8423483;28;20244;-70
2022/10/10 08:13:52;;;;;;;6.45;3.72;;;;;15.80;96526.00;;;;8423942;28;20227;-69
2022/10/10 08:23:28;;;;;;;8.13;3.90;;;;;16.00;96528.00;;;;8423964;28;20223;-69
2022/10/10 08:28:04;;;;;;;5.85;4.20;;;;;16.20;96525.00;;;;8425480;28;20529;-69
2022/10/10 08:32:40;;;;;;;12.60;6.13;;;;;16.30;96533.00;;;;8422591;28;20225;-68
2022/10/10 08:36:43;;;;;;;11.30;6.63;;;;;16.30;96541.00;;;;8424226;28;20229;-69
2022/10/10 08:40:50;;;;;;;10.57;7.22;;;;;16.30;96540.00;;;;8427075;28;20227;-69
2022/10/10 08:45:20;;;;;;;14.55;8.68;;;;;16.20;96543.00;;;;8425846;28;20219;-69
2022/10/10 08:50:00;;;;;;;12.73;8.38;;;;;16.20;96543.00;;;;8423912;28;20219;-68
2022/10/10 08:54:36;;;;;;;13.18;8.25;;;;;16.40;96541.00;;;;8426474;28;20222;-68
2022/10/10 08:59:10;;;;;;;12.77;8.23;;;;;16.50;96549.00;;;;8421044;28;20215;-67
2022/10/10 09:03:49;;;;;;;14.10;8.70;;;;;16.60;96558.00;;;;8396100;28;20254;-67
2022/10/10 09:08:33;;;;;;;14.63;8.82;;;;;16.90;96546.00;;;;8395041;28;20216;-68
2022/10/10 09:13:05;;;;;;;13.10;8.40;;;;;17.30;96553.00;;;;8392141;28;20219;-68
2022/10/10 09:17:19;;;;;;;12.77;8.07;;;;;17.50;96553.00;;;;8428309;28;20227;-68
2022/10/10 09:22:09;;;;;;;15.90;8.90;;;;;17.60;96551.00;;;;8429146;28;20307;-68
2022/10/10 09:26:46;;;;;;;13.75;8.18;;;;;18.00;96554.00;;;;8401714;28;20263;-68
2022/10/10 09:31:26;;;;;;;15.77;9.50;;;;;18.20;96553.00;;;;8427599;28;20618;-68
2022/10/10 09:36:03;;;;;;;17.02;8.90;;;;;18.40;96557.00;;;;8430970;28;20602;-69
2022/10/10 09:40:44;;;;;;;16.80;8.52;;;;;18.60;96555.00;;;;8397691;28;20262;-69
2022/10/10 09:45:18;;;;;;;14.60;8.55;;;;;18.90;96557.00;;;;8428592;28;20219;-68
2022/10/10 09:49:53;;;;;;;12.98;7.85;;;;;19.20;96563.00;;;;8400722;28;20638;-69
2022/10/10 09:54:28;;;;;;;12.65;8.13;;;;;19.50;96561.00;;;;8398866;28;20226;-69
2022/10/10 09:59:02;;;;;;;12.95;7.68;;;;;19.50;96565.00;;;;8397786;28;20232;-69
2022/10/10 10:03:38;;;;;;;13.25;8.23;;;;;19.70;96566.00;;;;8397629;28;20219;-69
2022/10/10 10:08:22;;;;;;;11.98;7.80;;;;;19.90;96573.00;;;;8426008;28;20383;-69
2022/10/10 10:12:53;;;;;;;14.90;7.55;;;;;20.30;96559.00;;;;8429461;28;20215;-68
2022/10/10 10:17:30;;;;;;;12.75;6.82;;;;;21.00;96553.00;;;;8429227;28;20219;-69
2022/10/10 10:21:48;;;;;;;10.73;6.68;;;;;21.80;96556.00;;;;8428996;28;20222;-69
2022/10/10 10:26:19;;;;;;;11.35;6.13;;;;;21.20;96563.00;;;;8426534;28;20215;-68
2022/10/10 10:30:45;;;;;;;8.50;6.03;;;;;20.70;96562.00;;;;8397534;28;20231;-69
2022/10/10 10:35:24;;;;;;;9.30;6.53;;;;;20.80;96559.00;;;;8395396;28;20568;-70
2022/10/10 10:39:55;;;;;;;13.05;6.13;;;;;21.10;96565.00;;;;8390110;28;20294;-69
2022/10/10 10:44:37;;;;;;;9.48;6.47;;;;;21.50;96567.00;;;;8426570;28;20223;-69
2022/10/10 10:49:10;;;;;;;14.23;6.32;;;;;21.30;96565.00;;;;8428811;28;20219;-69
2022/10/10 10:53:44;;;;;;;9.70;6.18;;;;;21.30;96561.00;;;;8424612;28;20219;-69
2022/10/10 10:58:39;;;;;;;13.68;6.90;;;;;21.30;96554.00;;;;8424051;28;20230;-69
2022/10/10 11:03:38;;;;;;;13.07;6.60;;;;;21.10;96559.00;;;;8318908;28;20232;-69
2022/10/10 11:08:19;;;;;;;12.52;7.93;;;;;21.00;96563.00;;;;8414204;28;20253;-69
2022/10/10 11:12:50;;;;;;;17.13;7.82;;;;;21.20;96561.00;;;;8428529;28;20276;-69
2022/10/10 11:17:15;;;;;;;15.18;7.55;;;;;21.60;96550.00;;;;8428525;28;20636;-70
2022/10/10 11:21:52;;;;;;;15.88;7.88;;;;;21.90;96546.00;;;;8427803;28;20222;-68
2022/10/10 11:26:30;;;;;;;11.57;7.60;;;;;21.90;96549.00;;;;8426455;28;20264;-70
2022/10/10 11:30:46;;;;;;;14.98;7.60;;;;;21.90;96545.00;;;;8425519;28;20603;-69
2022/10/10 11:35:35;;;;;;;13.07;7.57;;;;;22.10;96545.00;;;;8393446;28;20262;-68
2022/10/10 11:39:59;;;;;;;14.88;8.00;;;;;22.50;96553.00;;;;8289968;28;20229;-69
2022/10/10 11:44:35;;;;;;;15.43;7.90;;;;;22.70;96543.00;;;;8417145;28;20214;-69
2022/10/10 11:49:14;;;;;;;12.10;7.05;;;;;22.90;96541.00;;;;8393674;28;20273;-70
2022/10/10 11:53:46;;;;;;;13.32;7.05;;;;;23.00;96534.00;;;;8393466;28;20232;-69
2022/10/10 11:58:28;;;;;;;10.50;6.05;;;;;23.00;96545.00;;;;8393980;28;20222;-69
2022/10/10 12:02:59;;;;;;;12.70;7.57;;;;;22.90;96543.00;;;;8424922;28;20230;-70
2022/10/10 12:07:40;;;;;;;12.82;7.15;;;;;23.00;96538.00;;;;8424813;28;20727;-70
2022/10/10 12:12:13;;;;;;;15.27;7.78;;;;;23.00;96536.00;;;;8427365;28;20321;-70
2022/10/10 12:16:47;;;;;;;17.90;7.65;;;;;22.90;96535.00;;;;8415204;28;20217;-69
2022/10/10 12:26:25;;;;;;;17.50;8.10;;;;;22.80;96528.00;;;;8422397;28;20305;-70
2022/10/10 12:31:05;;;;;;;15.60;6.88;;;;;22.80;96533.00;;;;8424660;28;20223;-70
2022/10/10 12:35:42;;;;;;;13.70;6.95;;;;;22.80;96529.00;;;;8426426;28;20656;-71
2022/10/10 12:40:21;;;;;;;10.63;6.65;;;;;22.90;96529.00;;;;8426169;28;20644;-71
2022/10/10 12:44:54;;;;;;;13.95;5.95;;;;;23.20;96532.00;;;;8423875;28;20226;-70
2022/10/10 12:49:03;;;;;;;11.82;5.47;;;;;23.40;96527.00;;;;8425694;28;20670;-71
2022/10/10 12:53:34;;;;;;;8.45;5.03;;;;;23.30;96525.00;;;;8432920;28;20264;-71
2022/10/10 12:58:16;;;;;;;10.32;6.00;;;;;23.40;96522.00;;;;8432522;28;23146;-70
2022/10/10 13:02:51;;;;;;;8.27;4.93;;;;;23.40;96522.00;;;;8429904;28;20218;-70
2022/10/10 13:07:24;;;;;;;9.68;4.70;;;;;23.40;96522.00;;;;8398818;28;20220;-70
2022/10/10 13:11:59;;;;;;;8.85;5.40;;;;;23.20;96530.00;;;;8399970;28;20282;-70
2022/10/10 13:16:42;;;;;;;13.02;6.00;;;;;22.90;96526.00;;;;8429427;28;20617;-70
2022/10/10 13:25:46;;;;;;;8.90;5.25;;;;;22.50;96526.00;;;;8430276;28;20219;-70
2022/10/10 13:29:50;;;;;;;10.40;5.45;;;;;22.50;96522.00;;;;8398354;28;20216;-68
2022/10/10 13:34:26;;;;;;;11.48;5.90;;;;;22.30;96528.00;;;;8398679;28;20220;-69
2022/10/10 13:38:29;;;;;;;13.10;5.53;;;;;22.10;96527.00;;;;8397849;28;20545;-70
2022/10/10 13:43:11;;;;;;;11.13;5.53;;;;;22.20;96530.00;;;;8399131;28;20220;-69
2022/10/10 13:47:50;;;;;;;12.43;5.40;;;;;22.30;96529.00;;;;8430578;28;20230;-68
2022/10/10 13:52:24;;;;;;;9.43;5.82;;;;;22.30;96531.00;;;;8427288;28;20211;-68
2022/10/10 13:57:02;;;;;;;15.80;5.95;;;;;22.40;96528.00;;;;8426223;28;20248;-69
2022/10/10 14:01:41;;;;;;;13.80;6.10;;;;;22.40;96518.00;;;;8428491;28;20553;-69
2022/10/10 14:05:46;;;;;;;14.20;9.63;;;;;22.10;96529.00;;;;8429949;28;20219;-69
2022/10/10 14:10:24;;;;;;;17.02;9.40;;;;;21.80;96524.00;;;;8431029;28;20215;-69
2022/10/10 14:14:34;;;;;;;16.15;10.02;;;;;21.60;96533.00;;;;8426942;28;20245;-70
2022/10/10 14:18:39;;;;;;;14.88;10.25;;;;;21.40;96532.00;;;;8429161;28;20723;-68
2022/10/10 14:23:13;;;;;;;15.93;10.00;;;;;21.20;96526.00;;;;8427272;28;20800;-68
2022/10/10 14:27:25;;;;;;;18.25;10.43;;;;;21.00;96528.00;;;;8428368;28;20258;-68
2022/10/10 14:31:28;;;;;;;18.25;11.05;;;;;20.90;96523.00;;;;8395938;28;20285;-68
2022/10/10 14:36:07;;;;;;;30.50;18.55;;;;;20.80;96518.00;;;;8392898;28;20212;-68
2022/10/10 14:40:41;;;;;;;16.15;10.88;;;;;20.70;96519.00;;;;8396357;28;20299;-69
2022/10/10 14:44:52;;;;;;;15.00;10.60;;;;;20.70;96527.00;;;;8427608;28;20628;-68
2022/10/10 14:49:26;;;;;;;16.02;9.80;;;;;20.60;96517.00;;;;8428692;28;20261;-68
2022/10/10 14:53:30;;;;;;;18.48;9.90;;;;;20.60;96523.00;;;;8429568;28;20568;-70
2022/10/10 14:57:33;;;;;;;13.73;9.63;;;;;20.50;96524.00;;;;8429147;28;20563;-70
2022/10/10 15:01:37;;;;;;;15.43;10.00;;;;;20.50;96524.00;;;;8428654;28;20656;-71
2022/10/10 15:05:40;;;;;;;15.65;10.80;;;;;20.40;96524.00;;;;8428538;28;20223;-70
2022/10/10 15:10:16;;;;;;;19.23;10.27;;;;;20.20;96534.00;;;;8429240;28;20230;-69
2022/10/10 15:15:13;;;;;;;21.85;11.50;;;;;20.10;96530.00;;;;8424019;28;20218;-69
2022/10/10 15:19:17;;;;;;;16.10;9.40;;;;;20.00;96533.00;;;;8427183;28;20333;-69
2022/10/10 15:23:53;;;;;;;21.33;10.98;;;;;20.00;96523.00;;;;8421823;28;20234;-68
2022/10/10 15:28:28;;;;;;;13.68;10.00;;;;;19.80;96525.00;;;;8427452;28;20564;-69
2022/10/10 15:33:03;;;;;;;14.13;9.43;;;;;19.70;96524.00;;;;8427912;28;20251;-69
2022/10/10 15:37:40;;;;;;;19.30;9.25;;;;;19.50;96535.00;;;;8417522;28;20219;-69
2022/10/10 15:42:17;;;;;;;14.63;9.32;;;;;19.40;96540.00;;;;8427116;28;20223;-68
2022/10/10 15:46:28;;;;;;;12.73;8.65;;;;;19.20;96540.00;;;;8423340;28;20223;-68
2022/10/10 15:51:04;;;;;;;14.75;8.57;;;;;19.20;96541.00;;;;8427151;28;20219;-67
2022/10/10 15:55:42;;;;;;;17.27;9.75;;;;;19.10;96544.00;;;;8394116;28;20375;-68
2022/10/10 15:59:45;;;;;;;13.82;9.25;;;;;19.00;96555.00;;;;8426336;28;20598;-68
2022/10/10 16:03:50;;;;;;;13.50;8.82;;;;;19.00;96552.00;;;;8421864;28;20227;-68
2022/10/10 16:08:23;;;;;;;12.77;8.63;;;;;19.00;96545.00;;;;8427357;28;20219;-68
2022/10/10 16:12:26;;;;;;;18.98;9.63;;;;;18.90;96551.00;;;;8422645;28;20215;-69
2022/10/10 16:16:30;;;;;;;19.75;9.88;;;;;18.80;96551.00;;;;8426852;28;20219;-68
2022/10/10 16:20:37;;;;;;;15.52;10.27;;;;;18.70;96552.00;;;;8427350;28;20645;-68
2022/10/10 16:24:41;;;;;;;15.80;10.02;;;;;18.60;96555.00;;;;8426597;28;20218;-68
2022/10/10 16:28:52;;;;;;;16.17;11.57;;;;;18.40;96553.00;;;;8427059;28;20219;-68
2022/10/10 16:32:55;;;;;;;16.55;10.05;;;;;18.20;96551.00;;;;8427784;28;20215;-69
2022/10/10 16:36:59;;;;;;;18.35;8.68;;;;;18.00;96558.00;;;;8422335;28;20660;-68
2022/10/10 16:41:03;;;;;;;15.48;8.98;;;;;17.90;96562.00;;;;8426422;28;20215;-68
2022/10/10 16:45:08;;;;;;;15.30;10.02;;;;;17.70;96565.00;;;;8426643;28;20676;-68
2022/10/10 16:49:12;;;;;;;13.55;8.95;;;;;17.60;96558.00;;;;8427039;28;20593;-68
2022/10/10 16:53:17;;;;;;;13.98;9.27;;;;;17.50;96570.00;;;;8426343;28;20219;-69
2022/10/10 16:57:20;;;;;;;14.82;9.57;;;;;17.40;96572.00;;;;8426884;28;20674;-69
2022/10/10 17:01:23;;;;;;;13.35;8.68;;;;;17.20;96578.00;;;;8426857;28;20214;-69
2022/10/10 17:05:26;;;;;;;15.88;10.02;;;;;17.10;96573.00;;;;8426629;28;20231;-69
2022/10/10 17:10:08;;;;;;;15.20;9.50;;;;;16.90;96585.00;;;;8422243;28;20211;-69
2022/10/10 17:14:11;;;;;;;16.85;9.65;;;;;16.60;96595.00;;;;8423626;28;20232;-69
2022/10/10 17:18:16;;;;;;;19.17;9.63;;;;;16.40;96598.00;;;;8426150;28;20223;-69
2022/10/10 17:22:19;;;;;;;14.95;10.00;;;;;16.00;96600.00;;;;8426313;28;20268;-69
2022/10/10 17:26:24;;;;;;;17.20;10.40;;;;;15.80;96604.00;;;;8426102;28;20223;-69
2022/10/10 17:30:27;;;;;;;14.95;9.35;;;;;15.50;96602.00;;;;8426408;28;20219;-69
2022/10/10 17:34:30;;;;;;;15.52;10.23;;;;;15.10;96601.00;;;;8422076;28;20587;-69
2022/10/10 17:38:34;;;;;;;17.30;10.73;;;;;14.80;96599.00;;;;8431770;28;20270;-69
2022/10/10 17:43:12;;;;;;;15.68;10.18;;;;;14.60;96614.00;;;;8432971;28;20664;-69
2022/10/10 17:47:15;;;;;;;19.45;11.55;;;;;14.30;96610.00;;;;8429268;28;20231;-69
2022/10/10 17:51:21;;;;;;;19.85;12.52;;;;;14.10;96614.00;;;;8431468;28;20222;-69
2022/10/10 17:55:55;;;;;;;28.15;13.63;;;;;13.90;96619.00;;;;8430207;28;20223;-68
2022/10/10 17:59:59;;;;;;;27.13;14.88;;;;;13.70;96618.00;;;;8431134;28;20221;-68
2022/10/10 18:04:33;;;;;;;27.75;15.85;;;;;13.50;96611.00;;;;8427491;28;20211;-68
2022/10/10 18:08:36;;;;;;;23.40;14.05;;;;;13.40;96619.00;;;;8427659;28;20249;-69
2022/10/10 18:13:13;;;;;;;31.80;15.68;;;;;13.30;96625.00;;;;8431090;28;20223;-68
2022/10/10 18:17:18;;;;;;;29.38;14.75;;;;;13.20;96622.00;;;;8425283;28;20219;-69
2022/10/10 18:21:22;;;;;;;27.67;14.38;;;;;13.10;96618.00;;;;8430495;28;20234;-69
2022/10/10 18:25:26;;;;;;;32.30;14.70;;;;;13.00;96617.00;;;;8429771;28;20230;-68
2022/10/10 18:30:00;;;;;;;26.98;13.57;;;;;12.90;96620.00;;;;8429928;28;20223;-68
2022/10/10 18:34:37;;;;;;;29.15;16.05;;;;;12.80;96626.00;;;;8426282;28;20219;-69
2022/10/10 18:38:41;;;;;;;26.25;14.88;;;;;12.80;96627.00;;;;8427513;28;20223;-68
2022/10/10 18:43:18;;;;;;;29.13;13.88;;;;;12.60;96628.00;;;;8423410;28;20560;-67
2022/10/10 18:48:01;;;;;;;28.40;14.98;;;;;12.50;96624.00;;;;8426139;28;20234;-68
2022/10/10 18:52:32;;;;;;;25.52;14.13;;;;;12.40;96630.00;;;;8426252;28;20688;-68
2022/10/10 18:57:10;;;;;;;28.20;13.38;;;;;12.30;96627.00;;;;8395068;28;20295;-68
2022/10/10 19:01:49;;;;;;;31.88;15.18;;;;;12.20;96634.00;;;;8425116;28;20219;-69
2022/10/10 19:06:26;;;;;;;36.08;16.60;;;;;12.20;96627.00;;;;8427986;28;20234;-70
2022/10/10 19:11:00;;;;;;;32.58;14.30;;;;;12.20;96626.00;;;;8428916;28;20211;-69
2022/10/10 19:15:05;;;;;;;31.73;13.70;;;;;12.10;96627.00;;;;8427779;28;20214;-70
2022/10/10 19:19:42;;;;;;;38.40;13.43;;;;;12.00;96625.00;;;;8429223;28;20229;-71
2022/10/10 19:24:20;;;;;;;29.58;14.02;;;;;11.90;96627.00;;;;8427997;28;20212;-69
2022/10/10 19:29:00;;;;;;;24.10;13.45;;;;;11.80;96627.00;;;;8426113;28;20250;-70
2022/10/10 19:33:38;;;;;;;32.85;14.73;;;;;11.80;96623.00;;;;8427330;28;20595;-70
2022/10/10 19:37:41;;;;;;;32.05;12.70;;;;;11.80;96631.00;;;;8427915;28;20583;-70
2022/10/10 19:42:17;;;;;;;28.15;13.40;;;;;11.70;96635.00;;;;8427360;28;20329;-70
2022/10/10 19:46:55;;;;;;;25.00;13.75;;;;;11.60;96632.00;;;;8425849;28;20271;-69
2022/10/10 19:51:33;;;;;;;26.25;12.90;;;;;11.50;96635.00;;;;8424958;28;20219;-70
2022/10/10 19:56:07;;;;;;;32.35;14.48;;;;;11.50;96636.00;;;;8422268;28;20224;-69
2022/10/10 20:00:44;;;;;;;27.67;14.15;;;;;11.40;96636.00;;;;8422195;28;20226;-69
2022/10/10 20:05:21;;;;;;;24.75;12.75;;;;;11.40;96643.00;;;;8394302;28;20270;-69
2022/10/10 20:10:00;;;;;;;31.38;13.85;;;;;11.40;96640.00;;;;8425009;28;20235;-69
2022/10/10 20:14:36;;;;;;;33.83;14.02;;;;;11.30;96650.00;;;;8427349;28;20226;-68
2022/10/10 20:19:13;;;;;;;34.22;13.27;;;;;11.20;96654.00;;;;8423244;28;20225;-69
2022/10/10 20:28:50;;;;;;;38.20;15.18;;;;;11.20;96669.00;;;;8423100;28;20224;-69
2022/10/10 20:33:24;;;;;;;35.70;15.40;;;;;11.10;96678.00;;;;8424223;28;20696;-68
2022/10/10 20:38:01;;;;;;;55.78;15.07;;;;;11.10;96676.00;;;;8424982;28;20648;-69
2022/10/10 20:42:38;;;;;;;187.45;20.77;;;;;11.10;96672.00;;;;8426335;28;20640;-69
2022/10/10 20:46:44;;;;;;;38.95;16.35;;;;;11.00;96680.00;;;;8422529;28;20224;-78
2022/10/10 20:50:48;;;;;;;36.08;14.70;;;;;11.00;96683.00;;;;8425833;28;20215;-78
2022/10/10 20:54:52;;;;;;;45.13;15.85;;;;;10.90;96668.00;;;;8426958;28;20216;-80
2022/10/10 20:58:56;;;;;;;40.15;14.95;;;;;10.90;96681.00;;;;8426490;28;20286;-80
2022/10/10 21:03:34;;;;;;;33.17;16.63;;;;;10.80;96682.00;;;;8425748;28;20280;-79
2022/10/10 21:07:37;;;;;;;42.50;15.85;;;;;10.90;96691.00;;;;8422367;28;20220;-78
2022/10/10 21:11:41;;;;;;;43.17;17.90;;;;;10.90;96684.00;;;;8396480;28;20220;-78
2022/10/10 21:15:44;;;;;;;47.80;17.52;;;;;10.90;96683.00;;;;8398898;28;20707;-77
2022/10/10 21:20:19;;;;;;;40.72;15.68;;;;;10.90;96687.00;;;;8399038;28;20220;-79
2022/10/10 21:24:56;;;;;;;52.57;17.90;;;;;10.80;96690.00;;;;8431826;28;20553;-78
2022/10/10 21:29:00;;;;;;;81.85;19.48;;;;;10.80;96686.00;;;;8431096;28;20232;-78
2022/10/10 21:33:34;;;;;;;39.17;17.13;;;;;10.80;96683.00;;;;8432126;28;20222;-79
2022/10/10 21:37:38;;;;;;;41.45;15.63;;;;;10.80;96684.00;;;;8430597;28;20218;-78
2022/10/10 21:42:13;;;;;;;266.08;23.33;;;;;10.70;96690.00;;;;8428476;28;20625;-78
2022/10/10 21:46:18;;;;;;;240.60;25.30;;;;;10.70;96693.00;;;;8428068;28;20219;-78
2022/10/10 21:50:56;;;;;;;425.08;31.15;;;;;10.60;96696.00;;;;8431352;28;20226;-77
2022/10/10 21:55:01;;;;;;;87.03;18.83;;;;;10.60;96700.00;;;;8430839;28;20290;-77
2022/10/10 21:59:34;;;;;;;81.30;16.70;;;;;10.60;96706.00;;;;8430975;28;20215;-77
2022/10/10 22:03:37;;;;;;;632.05;36.38;;;;;10.60;96704.00;;;;8430196;28;20221;-78
2022/10/10 22:08:14;;;;;;;472.65;33.30;;;;;10.50;96699.00;;;;8430792;28;20225;-76
2022/10/10 22:12:51;;;;;;;482.43;33.20;;;;;10.50;96704.00;;;;8427306;28;20245;-76
2022/10/10 22:16:56;;;;;;;600.53;40.15;;;;;10.50;96711.00;;;;8428359;28;20219;-77
2022/10/10 22:21:05;;;;;;;62.38;19.05;;;;;10.60;96702.00;;;;8429863;28;20568;-75